createdAt,value
2017-10-02T00:01:48.373Z,10.00
2017-10-02T00:04:17.502Z,11.17
2017-10-02T00:06:45.882Z,8.80
2017-10-02T00:09:15.513Z,12.80
2017-10-02T00:11:43.882Z,9.63
2017-10-02T00:14:12.250Z,9.87
2017-10-02T00:16:40.751Z,9.60
2017-10-02T00:19:09.114Z,10.17
2017-10-02T00:21:37.978Z,9.23
2017-10-02T00:24:07.339Z,12.07
2017-10-02T00:26:35.708Z,10.80
2017-10-02T00:29:04.074Z,10.50
2017-10-02T00:31:32.560Z,9.30
2017-10-02T00:34:01.083Z,9.40
2017-10-02T00:36:30.206Z,10.27
2017-10-02T00:38:58.755Z,10.70
2017-10-02T00:41:27.129Z,10.27
2017-10-02T00:43:55.539Z,9.60
2017-10-02T00:46:24.013Z,8.50
2017-10-02T00:48:53.165Z,9.10
2017-10-02T00:51:21.806Z,9.27
2017-10-02T00:53:50.350Z,8.93
2017-10-02T00:56:18.786Z,9.03
2017-10-02T00:58:47.200Z,8.50
2017-10-02T01:01:15.607Z,8.60
2017-10-02T01:03:43.984Z,8.53
2017-10-02T01:06:14.001Z,7.80
2017-10-02T01:08:42.725Z,8.40
2017-10-02T01:11:11.279Z,10.57
2017-10-02T01:13:39.727Z,9.50
2017-10-02T01:16:08.208Z,9.40
2017-10-02T01:18:36.623Z,8.90
2017-10-02T01:21:05.814Z,11.23
2017-10-02T01:23:35.032Z,11.37
2017-10-02T01:26:04.155Z,10.47
2017-10-02T01:28:32.600Z,9.63
2017-10-02T01:31:01.820Z,9.77
2017-10-02T01:33:30.255Z,10.93
2017-10-02T01:35:58.725Z,10.33
2017-10-02T01:38:27.148Z,10.60
2017-10-02T01:40:55.556Z,10.87
2017-10-02T01:43:23.965Z,9.23
2017-10-02T01:45:53.258Z,10.60
2017-10-02T01:48:21.677Z,10.17
2017-10-02T01:50:50.153Z,8.70
2017-10-02T01:53:19.376Z,9.23
2017-10-02T01:55:47.880Z,9.83
2017-10-02T01:58:16.240Z,9.40
2017-10-02T02:00:45.003Z,10.37
2017-10-02T02:03:15.005Z,9.53
2017-10-02T02:05:45.063Z,8.90
2017-10-02T02:08:13.922Z,10.00
2017-10-02T02:10:43.082Z,9.57
2017-10-02T02:13:11.665Z,8.77
2017-10-02T02:15:40.077Z,8.50
2017-10-02T02:18:09.471Z,7.73
2017-10-02T02:20:38.766Z,7.67
2017-10-02T02:23:07.351Z,8.03
2017-10-02T02:25:35.816Z,8.03
2017-10-02T02:28:04.217Z,7.00
2017-10-02T02:30:32.786Z,7.90
2017-10-02T02:33:01.174Z,8.63
2017-10-02T02:35:29.564Z,9.10
2017-10-02T02:37:59.106Z,7.80
2017-10-02T02:40:27.465Z,8.20
2017-10-02T02:42:55.820Z,7.43
2017-10-02T02:45:25.009Z,8.07
2017-10-02T02:47:53.385Z,7.37
2017-10-02T02:50:21.765Z,8.43
2017-10-02T02:52:50.160Z,8.00
2017-10-02T02:55:19.870Z,8.00
2017-10-02T02:57:48.980Z,8.33
2017-10-02T03:00:18.406Z,7.50
2017-10-02T03:02:46.850Z,8.87
2017-10-02T03:05:15.991Z,6.97
2017-10-02T03:07:44.590Z,8.27
2017-10-02T03:10:12.952Z,9.73
2017-10-02T03:12:41.381Z,8.17
2017-10-02T03:15:10.632Z,7.67
2017-10-02T03:17:38.997Z,7.17
2017-10-02T03:20:07.428Z,7.40
2017-10-02T03:22:36.007Z,7.87
2017-10-02T03:25:05.198Z,6.67
2017-10-02T03:27:33.604Z,7.57
2017-10-02T03:30:03.234Z,7.40
2017-10-02T03:32:31.632Z,7.30
2017-10-02T03:34:59.981Z,7.77
2017-10-02T03:37:29.392Z,6.80
2017-10-02T03:39:57.869Z,7.87
2017-10-02T03:42:26.232Z,7.40
2017-10-02T03:44:57.162Z,6.70
2017-10-02T03:47:25.524Z,7.17
2017-10-02T03:49:54.433Z,7.20
2017-10-02T03:52:22.874Z,8.83
2017-10-02T03:54:51.248Z,6.90
2017-10-02T03:57:19.787Z,6.57
2017-10-02T03:59:49.006Z,8.13
2017-10-02T04:02:17.447Z,8.03
2017-10-02T04:04:45.890Z,7.93
2017-10-02T04:07:14.370Z,8.63
2017-10-02T04:09:42.801Z,8.47
2017-10-02T04:12:11.943Z,8.60
2017-10-02T04:14:40.663Z,7.37
2017-10-02T04:17:09.162Z,8.40
2017-10-02T04:19:38.299Z,8.27
2017-10-02T04:22:06.846Z,9.03
2017-10-02T04:24:35.252Z,8.13
2017-10-02T04:27:03.638Z,9.33
2017-10-02T04:29:32.066Z,8.40
2017-10-02T04:32:00.437Z,10.33
2017-10-02T04:34:28.858Z,9.67
2017-10-02T04:36:57.270Z,8.03
2017-10-02T04:39:25.691Z,9.03
2017-10-02T04:41:54.394Z,8.87
2017-10-02T04:44:23.153Z,8.07
2017-10-02T04:46:51.517Z,8.43
2017-10-02T04:49:19.917Z,8.53
2017-10-02T04:51:48.372Z,9.53
2017-10-02T04:54:16.878Z,9.63
2017-10-02T04:56:45.232Z,6.03
2017-10-02T04:59:14.347Z,8.77
2017-10-02T05:01:42.777Z,8.63
2017-10-02T05:04:11.142Z,9.37
2017-10-02T05:06:39.602Z,9.53
2017-10-02T05:09:08.745Z,10.70
2017-10-02T05:11:37.119Z,10.70
2017-10-02T05:14:05.695Z,10.03
2017-10-02T05:16:34.066Z,9.80
2017-10-02T05:19:02.510Z,11.13
2017-10-02T05:21:30.924Z,10.10
2017-10-02T05:23:59.339Z,11.23
2017-10-02T05:26:27.777Z,11.50
2017-10-02T05:28:56.897Z,13.60
2017-10-02T05:31:25.313Z,11.90
2017-10-02T05:33:53.692Z,10.47
2017-10-02T05:36:22.872Z,10.53
2017-10-02T05:38:51.270Z,11.90
2017-10-02T05:41:21.050Z,13.87
2017-10-02T05:43:49.684Z,12.40
2017-10-02T05:46:18.064Z,11.27
2017-10-02T05:48:47.214Z,12.00
2017-10-02T05:51:15.620Z,12.80
2017-10-02T05:53:43.975Z,12.20
2017-10-02T05:56:12.342Z,13.40
2017-10-02T05:58:40.874Z,13.70
2017-10-02T06:01:10.134Z,12.17
2017-10-02T06:03:38.489Z,13.43
2017-10-02T06:06:06.920Z,11.20
2017-10-02T06:08:36.100Z,13.67
2017-10-02T06:11:05.246Z,11.53
2017-10-02T06:13:33.727Z,13.70
2017-10-02T06:16:02.107Z,12.93
2017-10-02T06:18:30.504Z,12.20
2017-10-02T06:20:59.316Z,9.47
2017-10-02T06:23:27.680Z,12.60
2017-10-02T06:25:56.057Z,11.67
2017-10-02T06:28:24.762Z,11.27
2017-10-02T06:30:53.156Z,8.60
2017-10-02T06:33:21.707Z,11.50
2017-10-02T06:35:50.223Z,10.67
2017-10-02T06:38:18.605Z,10.77
2017-10-02T06:40:47.050Z,13.20
2017-10-02T06:43:15.899Z,13.03
2017-10-02T06:45:44.536Z,12.50
2017-10-02T06:48:12.939Z,13.80
2017-10-02T06:50:41.363Z,12.50
2017-10-02T06:53:09.800Z,11.10
2017-10-02T06:55:38.336Z,13.60
2017-10-02T06:58:07.154Z,14.23
2017-10-02T07:00:35.548Z,13.80
2017-10-02T07:03:05.115Z,12.43
2017-10-02T07:05:33.571Z,11.03
2017-10-02T07:08:01.977Z,9.30
2017-10-02T07:10:30.385Z,8.90
2017-10-02T07:12:58.792Z,6.87
2017-10-02T07:15:27.211Z,9.50
2017-10-02T07:17:55.662Z,10.33
2017-10-02T07:20:24.129Z,10.90
2017-10-02T07:22:52.919Z,11.60
2017-10-02T07:25:22.073Z,13.27
2017-10-02T07:27:50.573Z,11.17
2017-10-02T07:30:18.972Z,12.10
2017-10-02T07:32:48.100Z,6.87
2017-10-02T07:35:16.736Z,10.10
2017-10-02T07:37:45.153Z,11.93
2017-10-02T07:40:13.543Z,7.53
2017-10-02T07:42:42.104Z,11.57
2017-10-02T07:45:11.245Z,8.40
2017-10-02T07:47:39.672Z,9.93
2017-10-02T07:50:08.893Z,10.50
2017-10-02T07:52:37.257Z,10.87
2017-10-02T07:55:06.578Z,10.10
2017-10-02T07:57:35.000Z,11.17
2017-10-02T08:00:03.467Z,8.73
2017-10-02T08:02:31.856Z,10.13
2017-10-02T08:05:00.572Z,7.17
2017-10-02T08:07:29.717Z,8.47
2017-10-02T08:09:58.102Z,11.63
2017-10-02T08:12:26.599Z,9.00
2017-10-02T08:14:54.975Z,13.20
2017-10-02T08:17:23.360Z,8.40
2017-10-02T08:19:51.897Z,12.13
2017-10-02T08:22:20.262Z,9.57
2017-10-02T08:24:49.482Z,12.47
2017-10-02T08:27:17.956Z,10.53
2017-10-02T08:29:46.366Z,10.93
2017-10-02T08:32:15.420Z,11.30
2017-10-02T08:34:44.518Z,9.67
2017-10-02T08:37:12.929Z,12.13
2017-10-02T08:39:41.311Z,7.27
2017-10-02T08:42:10.036Z,13.03
2017-10-02T08:44:39.065Z,13.60
2017-10-02T08:47:07.471Z,12.07
2017-10-02T08:49:36.306Z,12.40
2017-10-02T08:52:05.438Z,9.37
2017-10-02T08:54:33.844Z,9.37
2017-10-02T08:57:03.230Z,13.20
2017-10-02T08:59:31.679Z,12.50
2017-10-02T09:02:00.156Z,9.13
2017-10-02T09:04:29.960Z,8.47
2017-10-02T09:06:59.091Z,9.30
2017-10-02T09:09:27.485Z,11.20
2017-10-02T09:11:55.908Z,5.80
2017-10-02T09:14:25.190Z,12.83
2017-10-02T09:16:54.503Z,9.60
2017-10-02T09:19:23.293Z,11.03
2017-10-02T09:21:51.670Z,11.10
2017-10-02T09:24:20.085Z,10.17
2017-10-02T09:26:48.723Z,11.90
2017-10-02T09:29:17.179Z,11.50
2017-10-02T09:31:46.451Z,10.77
2017-10-02T09:34:15.007Z,9.83
2017-10-02T09:36:44.184Z,10.90
2017-10-02T09:39:12.579Z,11.60
2017-10-02T09:41:43.091Z,10.67
2017-10-02T09:44:11.523Z,11.13
2017-10-02T09:46:39.981Z,10.30
2017-10-02T09:49:08.758Z,12.57
2017-10-02T09:51:38.055Z,8.17
2017-10-02T09:54:06.475Z,12.23
2017-10-02T09:56:35.004Z,9.77
2017-10-02T09:59:03.396Z,12.70
2017-10-02T10:01:32.631Z,14.37
2017-10-02T10:04:01.214Z,11.97
2017-10-02T10:06:30.517Z,13.23
2017-10-02T10:08:59.588Z,9.17
2017-10-02T10:11:28.773Z,14.43
2017-10-02T10:13:57.185Z,16.00
2017-10-02T10:16:25.644Z,15.20
2017-10-02T10:18:54.747Z,15.90
2017-10-02T10:21:23.908Z,16.50
2017-10-02T10:23:52.316Z,14.87
2017-10-02T10:26:21.511Z,16.13
2017-10-02T10:28:50.773Z,19.30
2017-10-02T10:31:19.211Z,16.73
2017-10-02T10:33:47.771Z,17.73
2017-10-02T10:36:16.934Z,16.70
2017-10-02T10:38:45.762Z,15.03
2017-10-02T10:41:14.304Z,17.60
2017-10-02T10:43:42.694Z,14.40
2017-10-02T10:46:11.096Z,16.63
2017-10-02T10:48:39.754Z,19.17
2017-10-02T10:51:08.148Z,19.40
2017-10-02T10:53:36.697Z,17.80
2017-10-02T10:56:05.151Z,17.57
2017-10-02T10:58:33.546Z,19.50
2017-10-02T11:01:01.921Z,19.40
2017-10-02T11:03:30.354Z,17.67
2017-10-02T11:05:58.763Z,17.63
2017-10-02T11:08:27.670Z,17.00
2017-10-02T11:10:56.422Z,15.13
2017-10-02T11:13:25.583Z,14.93
2017-10-02T11:15:54.043Z,16.27
2017-10-02T11:18:22.612Z,16.23
2017-10-02T11:20:51.859Z,11.80
2017-10-02T11:23:21.033Z,12.03
2017-10-02T11:25:49.886Z,7.83
2017-10-02T11:28:18.326Z,11.87
2017-10-02T11:30:46.833Z,10.43
2017-10-02T11:33:15.545Z,11.90
2017-10-02T11:35:44.260Z,15.07
2017-10-02T11:38:13.340Z,11.00
2017-10-02T11:40:41.881Z,13.87
2017-10-02T11:43:10.382Z,11.70
2017-10-02T11:45:38.783Z,12.83
2017-10-02T11:48:07.227Z,6.67
2017-10-02T11:50:35.613Z,13.93
2017-10-02T11:53:03.986Z,9.47
2017-10-02T11:55:32.670Z,9.13
2017-10-02T11:58:01.306Z,10.40
2017-10-02T12:00:29.721Z,11.27
2017-10-02T12:02:59.199Z,13.00
2017-10-02T12:05:28.779Z,11.40
2017-10-02T12:07:58.016Z,10.10
2017-10-02T12:10:26.554Z,8.30
2017-10-02T12:12:55.822Z,13.20
2017-10-02T12:15:24.201Z,10.40
2017-10-02T12:17:52.877Z,10.37
2017-10-02T12:20:22.104Z,13.77
2017-10-02T12:22:50.483Z,18.30
2017-10-02T12:25:18.964Z,11.90
2017-10-02T12:27:47.342Z,14.43
2017-10-02T12:30:17.817Z,16.53
2017-10-02T12:32:47.427Z,13.47
2017-10-02T12:35:15.795Z,12.33
2017-10-02T12:37:44.162Z,13.07
2017-10-02T12:40:13.008Z,14.20
2017-10-02T12:42:41.401Z,12.77
2017-10-02T12:45:09.799Z,9.07
2017-10-02T12:47:38.405Z,11.40
2017-10-02T12:50:06.975Z,12.13
2017-10-02T12:52:36.119Z,15.77
2017-10-02T12:55:04.915Z,12.73
2017-10-02T12:57:34.194Z,11.80
2017-10-02T13:00:03.519Z,14.60
2017-10-02T13:02:32.071Z,10.57
2017-10-02T13:05:00.520Z,14.40
2017-10-02T13:07:28.947Z,12.20
2017-10-02T13:09:58.152Z,10.97
2017-10-02T13:12:27.296Z,10.33
2017-10-02T13:14:55.889Z,16.37
2017-10-02T13:17:24.316Z,12.30
2017-10-02T13:19:52.696Z,16.87
2017-10-02T13:22:23.633Z,12.00
2017-10-02T13:24:53.139Z,15.37
2017-10-02T13:27:21.633Z,14.53
2017-10-02T13:29:50.038Z,12.30
2017-10-02T13:32:20.630Z,12.30
2017-10-02T13:34:49.269Z,8.40
2017-10-02T13:37:17.703Z,9.00
2017-10-02T13:39:46.555Z,8.90
2017-10-02T13:42:14.958Z,6.27
2017-10-02T13:44:43.565Z,6.87
2017-10-02T13:47:12.062Z,5.50
2017-10-02T13:49:40.470Z,5.03
2017-10-02T13:52:08.935Z,5.07
2017-10-02T13:54:37.587Z,5.37
2017-10-02T13:57:06.008Z,4.73
2017-10-02T13:59:34.417Z,3.97
2017-10-02T14:02:03.807Z,5.00
2017-10-02T14:04:32.207Z,5.10
2017-10-02T14:07:00.655Z,4.73
2017-10-02T14:09:29.103Z,4.00
2017-10-02T14:11:57.555Z,3.03
2017-10-02T14:14:26.704Z,2.57
2017-10-02T14:16:55.837Z,3.20
2017-10-02T14:19:24.213Z,4.17
2017-10-02T14:21:53.363Z,2.90
2017-10-02T14:24:21.791Z,2.53
2017-10-02T14:26:50.203Z,2.67
2017-10-02T14:29:19.064Z,3.60
2017-10-02T14:31:48.565Z,4.20
2017-10-02T14:34:16.922Z,3.50
2017-10-02T14:36:45.355Z,2.40
2017-10-02T14:39:14.772Z,3.10
2017-10-02T14:41:43.283Z,3.10
2017-10-02T14:44:11.690Z,2.43
2017-10-02T14:46:40.183Z,2.80
2017-10-02T14:49:09.234Z,3.03
2017-10-02T14:51:37.677Z,3.43
2017-10-02T14:54:06.335Z,2.70
2017-10-02T14:56:35.466Z,2.40
2017-10-02T14:59:03.887Z,2.90
2017-10-02T15:01:32.457Z,2.37
2017-10-02T15:04:00.822Z,2.77
2017-10-02T15:06:30.061Z,2.20
2017-10-02T15:08:59.485Z,2.50
2017-10-02T15:11:27.907Z,2.10
2017-10-02T15:13:56.629Z,2.30
2017-10-02T15:16:26.023Z,2.10
2017-10-02T15:18:54.931Z,2.00
2017-10-02T15:21:23.320Z,2.63
2017-10-02T15:23:51.819Z,2.13
2017-10-02T15:26:20.258Z,2.00
2017-10-02T15:28:49.453Z,1.90
2017-10-02T15:31:18.830Z,1.97
2017-10-02T15:33:47.551Z,2.30
2017-10-02T15:36:17.675Z,2.13
2017-10-02T15:38:47.574Z,1.87
2017-10-02T15:41:15.973Z,1.77
2017-10-02T15:43:45.276Z,1.63
2017-10-02T15:46:14.044Z,1.90
2017-10-02T15:48:42.571Z,1.70
2017-10-02T15:51:11.574Z,2.10
2017-10-02T15:53:40.416Z,2.10
2017-10-02T15:56:08.773Z,2.60
2017-10-02T15:58:37.391Z,2.30
2017-10-02T16:01:07.068Z,1.80
2017-10-02T16:03:36.069Z,2.37
2017-10-02T16:06:04.461Z,2.60
2017-10-02T16:08:33.653Z,2.30
2017-10-02T16:11:02.011Z,2.40
2017-10-02T16:13:30.604Z,1.80
2017-10-02T16:15:59.820Z,2.20
2017-10-02T16:18:28.966Z,1.90
2017-10-02T16:20:57.753Z,2.50
2017-10-02T16:23:26.303Z,2.80
2017-10-02T16:25:56.340Z,2.17
2017-10-02T16:28:24.933Z,3.10
2017-10-02T16:30:53.357Z,2.50
2017-10-02T16:33:21.740Z,3.00
2017-10-02T16:35:50.931Z,2.80
2017-10-02T16:38:20.137Z,2.93
2017-10-02T16:40:49.377Z,3.30
2017-10-02T16:43:17.747Z,2.90
2017-10-02T16:45:47.213Z,2.40
2017-10-02T16:48:15.601Z,3.13
2017-10-02T16:50:44.725Z,2.90
2017-10-02T16:53:14.223Z,2.70
2017-10-02T16:55:42.774Z,3.70
2017-10-02T16:58:11.145Z,3.03
2017-10-02T17:00:39.751Z,3.30
2017-10-02T17:03:08.345Z,3.83
2017-10-02T17:05:36.830Z,4.03
2017-10-02T17:08:05.398Z,3.20
2017-10-02T17:10:33.890Z,2.90
2017-10-02T17:13:02.281Z,3.83
2017-10-02T17:15:30.691Z,3.40
2017-10-02T17:17:59.195Z,4.00
2017-10-02T17:20:27.584Z,4.23
2017-10-02T17:22:57.673Z,3.70
2017-10-02T17:25:26.056Z,4.73
2017-10-02T17:27:56.062Z,4.13
2017-10-02T17:30:24.892Z,4.20
2017-10-02T17:32:54.041Z,4.63
2017-10-02T17:35:22.541Z,4.30
2017-10-02T17:37:50.938Z,4.30
2017-10-02T17:40:19.325Z,4.63
2017-10-02T17:42:48.818Z,5.27
2017-10-02T17:45:17.311Z,4.27
2017-10-02T17:47:45.703Z,4.40
2017-10-02T17:50:14.855Z,4.37
2017-10-02T17:52:43.683Z,4.20
2017-10-02T17:55:12.856Z,4.40
2017-10-02T17:57:41.278Z,4.70
2017-10-02T18:00:10.266Z,4.20
2017-10-02T18:02:38.661Z,4.63
2017-10-02T18:05:07.025Z,3.70
2017-10-02T18:07:36.534Z,4.20
2017-10-02T18:10:04.910Z,3.97
2017-10-02T18:12:33.289Z,3.97
2017-10-02T18:15:01.857Z,3.67
2017-10-02T18:17:31.046Z,4.00
2017-10-02T18:20:00.196Z,4.43
2017-10-02T18:22:28.744Z,5.20
2017-10-02T18:24:57.454Z,4.70
2017-10-02T18:27:25.820Z,5.50
2017-10-02T18:29:54.360Z,4.80
2017-10-02T18:32:22.744Z,5.73
2017-10-02T18:34:51.112Z,4.40
2017-10-02T18:37:19.914Z,5.00
2017-10-02T18:39:49.056Z,6.23
2017-10-02T18:42:17.428Z,4.87
2017-10-02T18:44:46.250Z,4.33
2017-10-02T18:47:14.634Z,5.80
2017-10-02T18:49:44.422Z,5.13
2017-10-02T18:52:13.814Z,6.13
2017-10-02T18:54:42.189Z,5.77
2017-10-02T18:57:10.645Z,6.47
2017-10-02T18:59:40.858Z,5.27
2017-10-02T19:02:10.026Z,5.27
2017-10-02T19:04:38.416Z,6.50
2017-10-02T19:07:06.825Z,5.50
2017-10-02T19:09:36.032Z,6.07
2017-10-02T19:12:04.438Z,5.37
2017-10-02T19:14:32.920Z,5.20
2017-10-02T19:17:01.300Z,4.57
2017-10-02T19:19:29.674Z,4.97
2017-10-02T19:21:58.215Z,5.00
2017-10-02T19:24:27.353Z,5.60
2017-10-02T19:26:55.880Z,4.90
2017-10-02T19:29:24.304Z,6.50
2017-10-02T19:31:52.742Z,5.03
2017-10-02T19:34:21.942Z,6.13
2017-10-02T19:36:52.030Z,4.97
2017-10-02T19:39:20.396Z,4.83
2017-10-02T19:41:48.774Z,6.00
2017-10-02T19:44:17.197Z,5.57
2017-10-02T19:46:46.409Z,7.67
2017-10-02T19:49:14.898Z,6.50
2017-10-02T19:51:43.394Z,6.53
2017-10-02T19:54:11.839Z,6.10
2017-10-02T19:56:41.017Z,6.00
2017-10-02T19:59:09.457Z,5.90
2017-10-02T20:01:37.890Z,6.70
2017-10-02T20:04:07.053Z,6.70
2017-10-02T20:06:35.648Z,6.83
2017-10-02T20:09:04.140Z,6.20
2017-10-02T20:14:07.099Z,6.70
2017-10-02T20:16:35.483Z,7.17
2017-10-02T20:19:03.945Z,6.73
2017-10-02T20:21:32.653Z,7.07
2017-10-02T20:24:01.128Z,7.27
2017-10-02T20:26:29.561Z,7.53
2017-10-02T20:28:58.433Z,7.77
2017-10-02T20:31:26.802Z,8.00
2017-10-02T20:33:55.168Z,7.30
2017-10-02T20:36:23.783Z,7.30
2017-10-02T20:38:52.201Z,8.43
2017-10-02T20:41:20.640Z,7.10
2017-10-02T20:43:49.224Z,6.00
2017-10-02T20:46:17.604Z,6.37
2017-10-02T20:48:46.041Z,6.90
2017-10-02T20:51:15.401Z,6.60
2017-10-02T20:53:44.647Z,7.10
2017-10-02T20:56:13.041Z,6.60
2017-10-02T20:58:41.457Z,6.30
2017-10-02T21:01:09.988Z,6.73
2017-10-02T21:03:38.336Z,6.77
2017-10-02T21:06:06.987Z,7.00
2017-10-02T21:08:35.392Z,8.23
2017-10-02T21:11:04.543Z,7.10
2017-10-02T21:13:33.325Z,6.57
2017-10-02T21:16:01.715Z,6.70
2017-10-02T21:18:30.093Z,9.50
2017-10-02T21:20:58.868Z,9.33
2017-10-02T21:23:27.237Z,6.90
2017-10-02T21:25:55.641Z,7.00
2017-10-02T21:28:24.039Z,8.23
2017-10-02T21:30:52.528Z,8.30
2017-10-02T21:33:21.682Z,7.33
2017-10-02T21:35:50.282Z,8.73
2017-10-02T21:38:18.672Z,9.07
2017-10-02T21:40:47.087Z,9.60
2017-10-02T21:43:15.764Z,8.37
2017-10-02T21:45:44.925Z,10.50
2017-10-02T21:48:13.301Z,11.83
2017-10-02T21:50:42.506Z,9.33
2017-10-02T21:53:10.906Z,11.00
2017-10-02T21:55:40.313Z,11.20
2017-10-02T21:58:08.813Z,10.70
2017-10-02T22:00:37.175Z,12.50
2017-10-02T22:03:06.348Z,10.97
2017-10-02T22:05:34.808Z,9.40
2017-10-02T22:08:03.178Z,9.90
2017-10-02T22:10:31.542Z,9.90
2017-10-02T22:13:00.247Z,9.70
2017-10-02T22:15:28.953Z,10.27
2017-10-02T22:17:57.312Z,11.60
2017-10-02T22:20:25.745Z,10.30
2017-10-02T22:22:54.238Z,9.97
2017-10-02T22:25:22.669Z,9.60
2017-10-02T22:27:52.036Z,9.37
2017-10-02T22:30:20.468Z,6.03
2017-10-02T22:32:49.400Z,7.77
2017-10-02T22:35:17.904Z,6.80
2017-10-02T22:37:46.298Z,4.70
2017-10-02T22:40:14.766Z,4.70
2017-10-02T22:42:43.370Z,6.97
2017-10-02T22:45:11.738Z,4.33
2017-10-02T22:47:40.111Z,4.90
2017-10-02T22:50:08.663Z,5.60
2017-10-02T22:52:37.096Z,6.90
2017-10-02T22:55:05.486Z,5.73
2017-10-02T22:57:34.051Z,5.13
2017-10-02T23:00:02.460Z,5.57
2017-10-02T23:02:31.595Z,5.90
2017-10-02T23:05:00.139Z,4.27
2017-10-02T23:07:29.259Z,7.20
2017-10-02T23:09:57.611Z,4.60
2017-10-02T23:12:26.773Z,4.93
2017-10-02T23:14:55.895Z,5.77
2017-10-02T23:17:24.296Z,5.73
2017-10-02T23:19:52.864Z,5.70
2017-10-02T23:22:22.011Z,4.17
2017-10-02T23:24:50.381Z,4.23
2017-10-02T23:27:19.305Z,4.30
2017-10-02T23:29:47.713Z,6.60
2017-10-02T23:32:16.866Z,5.13
2017-10-02T23:34:45.881Z,6.40
2017-10-02T23:37:14.260Z,5.23
2017-10-02T23:39:42.629Z,5.53
2017-10-02T23:42:11.191Z,5.40
2017-10-02T23:44:39.551Z,4.70
2017-10-02T23:47:07.920Z,4.73
2017-10-02T23:49:36.748Z,5.10
2017-10-02T23:52:05.109Z,5.60
2017-10-02T23:54:33.554Z,5.77
2017-10-02T23:57:02.061Z,5.20
2017-10-02T23:59:30.410Z,6.00
